createdAt,value
2022-12-23T00:00:37.829Z,1.01
2022-12-23T00:01:39.754Z,0.99
2022-12-23T00:02:41.652Z,0.99
2022-12-23T00:03:43.632Z,0.90
2022-12-23T00:04:45.481Z,0.81
2022-12-23T00:05:47.361Z,0.87
2022-12-23T00:06:49.069Z,0.94
2022-12-23T00:07:50.898Z,0.87
2022-12-23T00:08:58.857Z,1.04
2022-12-23T00:10:01.016Z,1.06
2022-12-23T00:11:05.788Z,1.06
2022-12-23T00:12:26.335Z,1.11
2022-12-23T00:13:46.683Z,1.10
2022-12-23T00:15:06.689Z,1.12
2022-12-23T00:16:11.373Z,1.09
2022-12-23T00:17:22.637Z,1.07
2022-12-23T00:18:24.931Z,1.01
2022-12-23T00:19:26.627Z,1.01
2022-12-23T00:20:28.344Z,0.96
2022-12-23T00:21:30.132Z,0.88
2022-12-23T00:22:50.859Z,0.86
2022-12-23T00:23:52.658Z,0.90
2022-12-23T00:24:54.358Z,0.98
2022-12-23T00:25:56.099Z,0.98
2022-12-23T00:26:57.794Z,0.92
2022-12-23T00:28:02.509Z,0.68
2022-12-23T00:29:04.220Z,0.54
2022-12-23T00:30:07.727Z,0.60
2022-12-23T00:31:10.047Z,0.62
2022-12-23T00:32:11.824Z,0.70
2022-12-23T00:33:15.510Z,0.79
2022-12-23T00:34:17.463Z,0.83
2022-12-23T00:35:19.227Z,0.58
2022-12-23T00:36:25.703Z,0.67
2022-12-23T00:37:30.681Z,0.68
2022-12-23T00:38:51.251Z,0.66
2022-12-23T00:40:11.926Z,0.51
2022-12-23T00:41:34.908Z,0.39
2022-12-23T00:42:55.067Z,0.36
2022-12-23T00:43:57.153Z,0.30
2022-12-23T00:45:15.862Z,0.45
2022-12-23T00:46:18.170Z,0.39
2022-12-23T00:47:38.343Z,0.41
2022-12-23T00:48:58.947Z,0.48
2022-12-23T00:50:00.645Z,0.49
2022-12-23T00:51:02.529Z,0.51
2022-12-23T00:52:05.901Z,0.50
2022-12-23T00:53:07.916Z,0.55
2022-12-23T00:54:09.627Z,0.62
2022-12-23T00:55:11.323Z,0.60
2022-12-23T00:56:13.060Z,0.48
2022-12-23T00:57:14.786Z,0.61
2022-12-23T00:58:20.808Z,0.63
2022-12-23T00:59:22.525Z,0.60
2022-12-23T01:00:47.508Z,0.62
2022-12-23T01:02:08.340Z,0.75
2022-12-23T01:03:33.343Z,0.68
2022-12-23T01:04:53.960Z,0.80
2022-12-23T01:05:59.026Z,0.85
2022-12-23T01:07:01.397Z,0.86
2022-12-23T01:08:11.431Z,0.75
2022-12-23T01:09:13.492Z,0.82
2022-12-23T01:10:15.305Z,0.84
2022-12-23T01:11:17.043Z,0.87
2022-12-23T01:12:18.917Z,0.84
2022-12-23T01:13:21.165Z,0.92
2022-12-23T01:14:23.047Z,0.98
2022-12-23T01:15:24.813Z,0.94
2022-12-23T01:16:26.648Z,0.94
2022-12-23T01:17:28.368Z,1.00
2022-12-23T01:18:30.161Z,1.02
2022-12-23T01:19:32.192Z,1.06
2022-12-23T01:20:33.974Z,1.05
2022-12-23T01:21:35.761Z,1.05
2022-12-23T01:22:37.464Z,1.05
2022-12-23T01:23:39.261Z,1.16
2022-12-23T01:24:41.005Z,1.18
2022-12-23T01:25:42.744Z,1.21
2022-12-23T01:26:44.564Z,1.19
2022-12-23T01:27:46.258Z,1.25
2022-12-23T01:28:48.003Z,1.26
2022-12-23T01:29:49.724Z,1.26
2022-12-23T01:30:51.466Z,1.13
2022-12-23T01:31:53.289Z,1.22
2022-12-23T01:32:55.023Z,1.22
2022-12-23T01:33:57.528Z,1.28
2022-12-23T01:34:59.306Z,1.27
2022-12-23T01:36:06.690Z,1.32
2022-12-23T01:37:08.392Z,1.29
2022-12-23T01:38:10.107Z,1.32
2022-12-23T01:39:11.917Z,1.25
2022-12-23T01:40:13.714Z,1.34
2022-12-23T01:41:39.261Z,1.33
2022-12-23T01:42:44.031Z,1.36
2022-12-23T01:43:51.251Z,1.25
2022-12-23T01:44:56.629Z,1.38
2022-12-23T01:45:58.377Z,1.40
2022-12-23T01:47:00.123Z,1.41
2022-12-23T01:48:20.480Z,1.42
2022-12-23T01:49:22.227Z,1.41
2022-12-23T01:50:30.839Z,1.37
2022-12-23T01:51:33.185Z,1.36
2022-12-23T01:52:40.042Z,1.42
2022-12-23T01:53:47.595Z,1.38
2022-12-23T01:54:49.539Z,1.28
2022-12-23T01:55:55.073Z,1.21
2022-12-23T01:56:58.043Z,1.23
2022-12-23T01:58:13.561Z,1.30
2022-12-23T01:59:34.391Z,1.23
2022-12-23T02:00:54.738Z,1.28
2022-12-23T02:02:15.568Z,1.33
2022-12-23T02:03:35.912Z,1.31
2022-12-23T02:04:37.677Z,1.26
2022-12-23T02:05:40.353Z,1.35
2022-12-23T02:07:02.515Z,1.34
2022-12-23T02:08:22.887Z,1.38
2022-12-23T02:09:34.997Z,1.42
2022-12-23T02:11:06.432Z,1.39
2022-12-23T02:12:38.490Z,1.37
2022-12-23T02:14:30.729Z,1.36
2022-12-23T02:15:55.066Z,1.36
2022-12-23T02:17:10.168Z,1.36
2022-12-23T02:18:27.121Z,1.38
2022-12-23T02:19:56.431Z,1.36
2022-12-23T02:21:00.851Z,1.36
2022-12-23T02:22:38.400Z,1.36
2022-12-23T02:24:04.697Z,1.35
2022-12-23T02:25:15.274Z,1.34
2022-12-23T02:26:53.397Z,1.31
2022-12-23T02:27:57.788Z,1.34
2022-12-23T02:29:23.628Z,1.32
2022-12-23T02:30:27.575Z,1.31
2022-12-23T02:31:35.203Z,1.36
2022-12-23T02:33:16.883Z,1.38
2022-12-23T02:34:42.913Z,1.39
2022-12-23T02:35:58.697Z,1.36
2022-12-23T02:37:09.551Z,1.38
2022-12-23T02:38:41.359Z,1.36
2022-12-23T02:39:56.101Z,1.39
2022-12-23T02:41:24.031Z,1.40
2022-12-23T02:42:45.400Z,1.37
2022-12-23T02:44:10.842Z,1.30
2022-12-23T02:45:19.045Z,1.36
2022-12-23T02:46:35.786Z,1.38
2022-12-23T02:47:50.796Z,1.37
2022-12-23T02:49:02.420Z,1.39
2022-12-23T02:50:11.211Z,1.40
2022-12-23T02:51:15.306Z,1.39
2022-12-23T02:52:21.074Z,1.43
2022-12-23T02:53:29.480Z,1.44
2022-12-23T02:54:44.977Z,1.36
2022-12-23T02:55:50.205Z,1.35
2022-12-23T02:56:54.120Z,1.34
2022-12-23T02:57:57.985Z,1.35
2022-12-23T02:59:08.443Z,1.33
2022-12-23T03:00:11.294Z,1.47
2022-12-23T03:01:16.236Z,1.29
2022-12-23T03:02:18.606Z,1.44
2022-12-23T03:03:22.438Z,1.55
2022-12-23T03:04:24.266Z,1.58
2022-12-23T03:05:32.828Z,1.58
2022-12-23T03:06:40.768Z,1.57
2022-12-23T03:07:43.654Z,1.59
2022-12-23T03:08:45.925Z,1.55
2022-12-23T03:10:08.996Z,1.61
2022-12-23T03:11:13.652Z,1.53
2022-12-23T03:12:39.626Z,1.56
2022-12-23T03:14:05.883Z,1.61
2022-12-23T03:15:13.597Z,1.59
2022-12-23T03:16:27.943Z,1.58
2022-12-23T03:17:57.900Z,1.65
2022-12-23T03:19:21.367Z,1.68
2022-12-23T03:20:35.242Z,1.62
2022-12-23T03:21:39.862Z,1.57
2022-12-23T03:22:59.196Z,1.56
2022-12-23T03:24:35.104Z,1.52
2022-12-23T03:25:43.644Z,1.53
2022-12-23T03:27:01.994Z,1.50
2022-12-23T03:28:27.480Z,1.54
2022-12-23T03:29:35.708Z,1.52
2022-12-23T03:30:41.471Z,1.56
2022-12-23T03:31:45.697Z,1.48
2022-12-23T03:32:49.944Z,1.58
2022-12-23T03:33:58.438Z,1.61
2022-12-23T03:35:02.768Z,1.66
2022-12-23T03:36:13.653Z,1.66
2022-12-23T03:37:17.967Z,1.59
2022-12-23T03:38:21.951Z,1.62
2022-12-23T03:39:31.295Z,1.56
2022-12-23T03:40:38.877Z,1.64
2022-12-23T03:41:44.125Z,1.54
2022-12-23T03:42:52.416Z,1.61
2022-12-23T03:44:09.707Z,1.59
2022-12-23T03:45:38.089Z,1.64
2022-12-23T03:46:46.929Z,1.58
2022-12-23T03:48:16.635Z,1.66
2022-12-23T03:49:28.557Z,1.65
2022-12-23T03:50:31.534Z,1.68
2022-12-23T03:51:39.746Z,1.66
2022-12-23T03:52:51.700Z,1.60
2022-12-23T03:54:09.579Z,1.58
2022-12-23T03:55:17.954Z,1.56
2022-12-23T03:56:31.055Z,1.49
2022-12-23T03:57:41.477Z,1.46
2022-12-23T03:58:45.502Z,1.54
2022-12-23T03:59:50.789Z,1.53
2022-12-23T04:01:18.176Z,1.51
2022-12-23T04:02:23.654Z,1.54
2022-12-23T04:03:42.159Z,1.54
2022-12-23T04:04:51.089Z,1.50
2022-12-23T04:05:57.641Z,1.50
2022-12-23T04:07:17.784Z,1.49
2022-12-23T04:08:27.484Z,1.41
2022-12-23T04:09:29.584Z,1.29
2022-12-23T04:10:32.001Z,1.22
2022-12-23T04:11:35.824Z,1.39
2022-12-23T04:12:39.425Z,1.41
2022-12-23T04:13:41.200Z,1.46
2022-12-23T04:14:48.926Z,1.47
2022-12-23T04:15:50.790Z,1.53
2022-12-23T04:16:58.462Z,1.57
2022-12-23T04:18:00.356Z,1.53
2022-12-23T04:19:02.113Z,1.51
2022-12-23T04:20:04.347Z,1.58
2022-12-23T04:21:06.142Z,1.58
2022-12-23T04:22:07.899Z,1.57
2022-12-23T04:23:09.587Z,1.44
2022-12-23T04:24:11.413Z,1.46
2022-12-23T04:25:14.845Z,1.45
2022-12-23T04:26:16.577Z,1.54
2022-12-23T04:27:18.319Z,1.57
2022-12-23T04:28:20.528Z,1.45
2022-12-23T04:29:22.273Z,1.54
2022-12-23T04:30:28.105Z,1.60
2022-12-23T04:31:35.265Z,1.60
2022-12-23T04:32:37.319Z,1.58
2022-12-23T04:33:39.060Z,1.68
2022-12-23T04:34:40.818Z,1.69
2022-12-23T04:35:42.540Z,1.68
2022-12-23T04:36:44.271Z,1.66
2022-12-23T04:37:45.997Z,1.59
2022-12-23T04:38:47.711Z,1.55
2022-12-23T04:39:49.512Z,1.36
2022-12-23T04:40:51.310Z,1.29
2022-12-23T04:41:53.072Z,1.26
2022-12-23T04:42:54.801Z,1.21
2022-12-23T04:43:56.622Z,0.97
2022-12-23T04:44:58.511Z,0.79
2022-12-23T04:46:00.283Z,1.02
2022-12-23T04:47:02.047Z,1.06
2022-12-23T04:48:03.986Z,1.13
2022-12-23T04:49:05.760Z,1.17
2022-12-23T04:50:08.218Z,1.09
2022-12-23T04:51:09.997Z,1.08
2022-12-23T04:52:11.764Z,1.08
2022-12-23T04:53:13.497Z,1.12
2022-12-23T04:54:15.707Z,1.27
2022-12-23T04:55:17.691Z,1.35
2022-12-23T04:56:19.505Z,1.35
2022-12-23T04:57:21.263Z,1.41
2022-12-23T04:58:25.134Z,1.55
2022-12-23T04:59:26.867Z,1.56
2022-12-23T05:00:31.509Z,1.55
2022-12-23T05:01:35.876Z,1.59
2022-12-23T05:02:37.772Z,1.59
2022-12-23T05:03:40.038Z,1.64
2022-12-23T05:04:42.108Z,1.66
2022-12-23T05:05:44.796Z,1.69
2022-12-23T05:06:46.520Z,1.65
2022-12-23T05:07:51.827Z,1.45
2022-12-23T05:08:53.538Z,1.11
2022-12-23T05:09:55.298Z,0.99
2022-12-23T05:10:57.071Z,1.10
2022-12-23T05:11:58.771Z,1.26
2022-12-23T05:13:00.517Z,1.31
2022-12-23T05:14:02.957Z,1.20
2022-12-23T05:15:05.011Z,1.12
2022-12-23T05:16:07.242Z,1.12
2022-12-23T05:17:09.092Z,1.24
2022-12-23T05:18:11.045Z,1.18
2022-12-23T05:19:12.804Z,1.14
2022-12-23T05:20:14.632Z,1.19
2022-12-23T05:21:16.577Z,1.17
2022-12-23T05:22:18.300Z,1.24
2022-12-23T05:23:20.038Z,1.20
2022-12-23T05:24:21.743Z,1.24
2022-12-23T05:25:23.468Z,1.29
2022-12-23T05:26:25.234Z,1.27
2022-12-23T05:27:26.982Z,1.24
2022-12-23T05:28:29.419Z,1.14
2022-12-23T05:29:31.143Z,1.01
2022-12-23T05:30:32.846Z,1.01
2022-12-23T05:31:34.605Z,1.09
2022-12-23T05:32:36.770Z,1.14
2022-12-23T05:33:39.256Z,1.19
2022-12-23T05:34:40.991Z,1.23
2022-12-23T05:35:42.759Z,1.19
2022-12-23T05:36:44.455Z,1.14
2022-12-23T05:37:46.440Z,1.25
2022-12-23T05:38:49.379Z,1.22
2022-12-23T05:39:51.159Z,1.27
2022-12-23T05:40:53.440Z,1.33
2022-12-23T05:41:55.169Z,1.29
2022-12-23T05:42:56.982Z,1.22
2022-12-23T05:43:58.732Z,1.34
2022-12-23T05:45:00.416Z,1.32
2022-12-23T05:46:02.172Z,1.22
2022-12-23T05:47:03.957Z,1.33
2022-12-23T05:48:05.861Z,1.29
2022-12-23T05:49:07.680Z,1.18
2022-12-23T05:50:09.803Z,1.30
2022-12-23T05:51:11.501Z,1.32
2022-12-23T05:52:13.217Z,1.37
2022-12-23T05:53:14.940Z,1.17
2022-12-23T05:54:16.714Z,1.43
2022-12-23T05:55:18.516Z,1.42
2022-12-23T05:56:20.240Z,1.45
2022-12-23T05:57:22.099Z,1.33
2022-12-23T05:58:24.141Z,1.36
2022-12-23T05:59:30.752Z,1.37
2022-12-23T06:00:33.757Z,1.42
2022-12-23T06:01:35.583Z,1.43
2022-12-23T06:02:37.558Z,1.36
2022-12-23T06:03:39.528Z,1.46
2022-12-23T06:04:41.434Z,1.49
2022-12-23T06:05:44.127Z,1.54
2022-12-23T06:06:45.830Z,1.51
2022-12-23T06:07:47.610Z,1.54
2022-12-23T06:08:52.057Z,1.57
2022-12-23T06:09:57.593Z,1.58
2022-12-23T06:10:59.994Z,1.48
2022-12-23T06:12:01.826Z,1.50
2022-12-23T06:13:03.556Z,1.50
2022-12-23T06:14:07.351Z,1.48
2022-12-23T06:15:09.594Z,1.52
2022-12-23T06:16:11.376Z,1.45
2022-12-23T06:17:13.111Z,1.43
2022-12-23T06:18:14.814Z,1.42
2022-12-23T06:19:16.570Z,1.53
2022-12-23T06:20:21.012Z,1.58
2022-12-23T06:21:23.198Z,1.59
2022-12-23T06:22:25.024Z,1.58
2022-12-23T06:23:26.720Z,1.55
2022-12-23T06:24:28.417Z,1.56
2022-12-23T06:25:30.189Z,1.54
2022-12-23T06:26:32.023Z,1.58
2022-12-23T06:27:33.747Z,1.52
2022-12-23T06:28:35.556Z,1.60
2022-12-23T06:29:37.264Z,1.63
2022-12-23T06:30:39.016Z,1.64
2022-12-23T06:31:40.780Z,1.63
2022-12-23T06:32:42.548Z,1.72
2022-12-23T06:33:44.331Z,1.78
2022-12-23T06:34:46.836Z,1.83
2022-12-23T06:35:48.666Z,1.85
2022-12-23T06:36:50.385Z,1.91
2022-12-23T06:37:55.182Z,1.81
2022-12-23T06:38:56.996Z,1.97
2022-12-23T06:39:58.762Z,1.96
2022-12-23T06:41:00.577Z,2.00
2022-12-23T06:42:02.254Z,2.03
2022-12-23T06:43:04.018Z,2.15
2022-12-23T06:44:06.021Z,2.16
2022-12-23T06:45:08.416Z,2.18
2022-12-23T06:46:10.174Z,2.23
2022-12-23T06:47:11.907Z,2.23
2022-12-23T06:48:13.694Z,2.23
2022-12-23T06:49:15.443Z,2.29
2022-12-23T06:50:17.210Z,2.21
2022-12-23T06:51:19.317Z,2.28
2022-12-23T06:52:23.177Z,2.34
2022-12-23T06:53:25.152Z,2.39
2022-12-23T06:54:26.869Z,2.49
2022-12-23T06:55:28.595Z,2.51
2022-12-23T06:56:30.388Z,2.62
2022-12-23T06:57:32.122Z,2.67
2022-12-23T06:58:34.036Z,2.73
2022-12-23T06:59:35.759Z,2.74
2022-12-23T07:00:37.501Z,2.74
2022-12-23T07:01:40.736Z,2.81
2022-12-23T07:02:42.742Z,2.85
2022-12-23T07:03:44.669Z,2.94
2022-12-23T07:04:46.552Z,3.00
2022-12-23T07:05:49.403Z,3.09
2022-12-23T07:06:51.119Z,3.14
2022-12-23T07:07:52.837Z,3.16
2022-12-23T07:08:54.600Z,3.12
2022-12-23T07:09:56.340Z,3.21
2022-12-23T07:11:02.303Z,3.21
2022-12-23T07:12:04.318Z,3.27
2022-12-23T07:13:06.072Z,3.31
2022-12-23T07:14:07.826Z,3.31
2022-12-23T07:15:10.057Z,3.40
2022-12-23T07:16:11.777Z,3.48
2022-12-23T07:17:13.618Z,3.60
2022-12-23T07:18:15.412Z,3.69
2022-12-23T07:19:17.182Z,3.86
2022-12-23T07:20:18.884Z,4.04
2022-12-23T07:21:28.989Z,4.37
2022-12-23T07:22:31.349Z,4.68
2022-12-23T07:23:33.068Z,4.94
2022-12-23T07:24:34.775Z,5.14
2022-12-23T07:25:36.467Z,5.42
2022-12-23T07:26:38.265Z,5.75
2022-12-23T07:27:39.949Z,6.13
2022-12-23T07:28:46.867Z,6.49
2022-12-23T07:29:48.595Z,6.66
2022-12-23T07:30:50.387Z,6.94
2022-12-23T07:31:53.211Z,7.25
2022-12-23T07:32:55.056Z,7.68
2022-12-23T07:33:56.763Z,7.99
2022-12-23T07:34:58.518Z,8.38
2022-12-23T07:36:00.581Z,8.71
2022-12-23T07:37:02.327Z,8.98
2022-12-23T07:38:04.192Z,9.36
2022-12-23T07:39:06.077Z,9.64
2022-12-23T07:40:10.112Z,9.98
2022-12-23T07:41:11.926Z,10.29
2022-12-23T07:42:43.293Z,10.33
2022-12-23T07:43:35.445Z,10.65
2022-12-23T07:44:37.161Z,11.02
2022-12-23T07:45:38.867Z,11.14
2022-12-23T07:46:40.736Z,11.50
2022-12-23T07:47:43.212Z,11.74
2022-12-23T07:48:44.918Z,12.08
2022-12-23T07:49:46.678Z,12.23
2022-12-23T07:50:48.579Z,12.50
2022-12-23T07:51:50.455Z,12.71
2022-12-23T07:52:52.968Z,12.90
2022-12-23T07:53:54.740Z,13.21
2022-12-23T07:54:56.449Z,13.45
2022-12-23T07:55:58.796Z,13.58
2022-12-23T07:57:00.490Z,13.80
2022-12-23T07:58:02.719Z,14.12
2022-12-23T07:59:04.454Z,14.40
2022-12-23T08:00:07.738Z,14.75
2022-12-23T08:01:09.663Z,15.05
2022-12-23T08:02:11.684Z,15.44
2022-12-23T08:03:13.771Z,15.56
2022-12-23T08:04:15.559Z,15.73
2022-12-23T08:05:17.551Z,15.90
2022-12-23T08:06:19.469Z,16.07
2022-12-23T08:07:21.179Z,16.25
2022-12-23T08:08:22.914Z,16.32
2022-12-23T08:09:24.654Z,16.32
2022-12-23T08:10:26.480Z,16.37
2022-12-23T08:11:28.187Z,16.41
2022-12-23T08:12:30.018Z,16.59
2022-12-23T08:13:34.039Z,16.78
2022-12-23T08:14:35.758Z,16.79
2022-12-23T08:15:37.458Z,16.81
2022-12-23T08:16:43.577Z,16.94
2022-12-23T08:17:46.068Z,17.04
2022-12-23T08:18:47.761Z,17.02
2022-12-23T08:19:49.711Z,17.04
2022-12-23T08:21:06.044Z,17.17
2022-12-23T08:22:07.745Z,17.21
2022-12-23T08:23:09.452Z,17.13
2022-12-23T08:24:11.168Z,16.81
2022-12-23T08:25:12.880Z,16.81
2022-12-23T08:26:17.101Z,17.04
2022-12-23T08:27:18.836Z,17.07
2022-12-23T08:28:20.585Z,17.30
2022-12-23T08:29:22.309Z,17.38
2022-12-23T08:30:24.059Z,17.48
2022-12-23T08:31:32.086Z,17.61
2022-12-23T08:32:33.866Z,17.52
2022-12-23T08:33:38.383Z,17.55
2022-12-23T08:34:40.180Z,17.84
2022-12-23T08:35:41.889Z,18.17
2022-12-23T08:36:43.601Z,18.48
2022-12-23T08:37:45.367Z,18.69
2022-12-23T08:38:47.405Z,18.89
2022-12-23T08:39:49.778Z,18.94
2022-12-23T08:40:51.490Z,18.90
2022-12-23T08:41:53.788Z,18.93
2022-12-23T08:42:55.523Z,18.88
2022-12-23T08:43:57.833Z,18.92
2022-12-23T08:45:01.098Z,18.85
2022-12-23T08:46:03.435Z,18.65
2022-12-23T08:47:05.280Z,18.47
2022-12-23T08:48:07.133Z,18.28
2022-12-23T08:49:09.582Z,18.08
2022-12-23T08:50:12.152Z,17.66
2022-12-23T08:51:16.848Z,17.36
2022-12-23T08:52:18.600Z,17.07
2022-12-23T08:53:20.306Z,16.85
2022-12-23T08:54:23.874Z,16.65
2022-12-23T08:55:25.725Z,16.34
2022-12-23T08:56:32.736Z,16.02
2022-12-23T08:57:34.593Z,15.87
2022-12-23T08:58:39.074Z,15.77
2022-12-23T08:59:40.850Z,15.65
2022-12-23T09:00:42.630Z,15.50
2022-12-23T09:01:44.664Z,15.44
2022-12-23T09:02:46.610Z,15.30
2022-12-23T09:03:48.790Z,15.32
2022-12-23T09:04:50.572Z,15.26
2022-12-23T09:05:52.276Z,15.25
2022-12-23T09:06:54.034Z,15.33
2022-12-23T09:07:55.842Z,15.31
2022-12-23T09:08:58.651Z,15.23
2022-12-23T09:10:00.430Z,15.30
2022-12-23T09:11:02.369Z,15.32
2022-12-23T09:12:04.678Z,15.32
2022-12-23T09:13:06.410Z,15.21
2022-12-23T09:14:10.330Z,15.17
2022-12-23T09:15:12.118Z,15.17
2022-12-23T09:16:14.378Z,15.18
2022-12-23T09:17:17.756Z,15.12
2022-12-23T09:18:19.692Z,14.88
2022-12-23T09:19:21.420Z,14.85
2022-12-23T09:20:23.149Z,14.73
2022-12-23T09:21:24.876Z,14.54
2022-12-23T09:22:26.597Z,14.49
2022-12-23T09:23:28.611Z,14.46
2022-12-23T09:24:30.466Z,14.51
2022-12-23T09:25:33.436Z,14.49
2022-12-23T09:26:35.161Z,14.41
2022-12-23T09:27:36.851Z,14.36
2022-12-23T09:28:39.849Z,14.18
2022-12-23T09:29:41.565Z,14.07
2022-12-23T09:30:43.345Z,13.92
2022-12-23T09:31:45.105Z,13.97
2022-12-23T09:32:46.923Z,13.89
2022-12-23T09:33:51.312Z,13.90
2022-12-23T09:34:53.071Z,13.82
2022-12-23T09:35:59.980Z,13.70
2022-12-23T09:37:03.051Z,13.82
2022-12-23T09:38:05.089Z,13.77
2022-12-23T09:39:06.799Z,13.79
2022-12-23T09:40:12.312Z,13.65
2022-12-23T09:42:01.636Z,13.50
2022-12-23T09:43:17.056Z,13.40
2022-12-23T09:44:32.571Z,13.32
2022-12-23T09:45:52.728Z,13.29
2022-12-23T09:46:58.714Z,13.14
2022-12-23T09:48:01.147Z,13.05
2022-12-23T09:49:05.455Z,13.07
2022-12-23T09:50:26.579Z,13.07
2022-12-23T09:51:30.727Z,12.81
2022-12-23T09:53:08.026Z,12.47
2022-12-23T09:54:29.072Z,12.41
2022-12-23T09:56:13.176Z,12.39
2022-12-23T09:57:17.493Z,12.38
2022-12-23T09:58:30.141Z,12.38
2022-12-23T10:00:18.639Z,12.25
2022-12-23T10:01:44.651Z,12.27
2022-12-23T10:02:59.065Z,12.34
2022-12-23T10:04:16.127Z,12.25
2022-12-23T10:05:28.047Z,12.37
2022-12-23T10:06:30.982Z,12.28
2022-12-23T10:07:51.641Z,12.20
2022-12-23T10:08:58.340Z,12.09
2022-12-23T10:10:08.229Z,12.07
2022-12-23T10:11:20.539Z,12.26
2022-12-23T10:12:45.236Z,12.16
2022-12-23T10:14:00.832Z,12.14
2022-12-23T10:15:16.830Z,12.22
2022-12-23T10:16:41.557Z,12.27
2022-12-23T10:17:44.718Z,12.25
2022-12-23T10:19:01.264Z,12.32
2022-12-23T10:20:06.581Z,12.29
2022-12-23T10:21:16.404Z,12.32
2022-12-23T10:22:44.171Z,12.34
2022-12-23T10:23:52.350Z,12.38
2022-12-23T10:24:57.878Z,12.39
2022-12-23T10:26:01.458Z,12.51
2022-12-23T10:27:12.670Z,12.71
2022-12-23T10:28:14.286Z,12.95
2022-12-23T10:29:32.910Z,13.13
2022-12-23T10:32:17.737Z,13.77
2022-12-23T10:33:24.454Z,13.63
2022-12-23T10:34:47.365Z,13.86
2022-12-23T10:35:52.309Z,13.94
2022-12-23T10:37:07.554Z,14.09
2022-12-23T10:38:30.958Z,14.03
2022-12-23T10:39:41.022Z,13.99
2022-12-23T10:41:13.135Z,13.89
2022-12-23T10:42:20.765Z,13.75
2022-12-23T10:43:25.327Z,13.69
2022-12-23T10:44:57.773Z,13.60
2022-12-23T10:46:03.073Z,13.53
2022-12-23T10:47:19.810Z,13.58
2022-12-23T10:48:52.631Z,13.66
2022-12-23T10:50:12.522Z,13.75
2022-12-23T10:51:21.325Z,13.71
2022-12-23T10:52:27.488Z,13.69
2022-12-23T10:53:38.354Z,13.65
2022-12-23T10:54:42.318Z,13.57
2022-12-23T10:55:45.328Z,13.40
2022-12-23T10:56:47.643Z,13.26
2022-12-23T10:57:50.775Z,13.15
2022-12-23T10:58:59.529Z,12.99
2022-12-23T11:00:01.296Z,12.86
2022-12-23T11:01:14.929Z,12.62
2022-12-23T11:02:49.942Z,12.70
2022-12-23T11:04:07.615Z,12.86
2022-12-23T11:05:15.449Z,13.05
2022-12-23T11:06:17.339Z,13.19
2022-12-23T11:07:45.507Z,13.22
2022-12-23T11:08:48.283Z,13.30
2022-12-23T11:10:01.199Z,13.59
2022-12-23T11:11:03.402Z,13.78
2022-12-23T11:12:08.512Z,13.93
2022-12-23T11:13:10.289Z,13.92
2022-12-23T11:14:30.815Z,13.98
2022-12-23T11:15:38.922Z,14.07
2022-12-23T11:16:46.958Z,14.03
2022-12-23T11:18:00.708Z,13.88
2022-12-23T11:19:15.262Z,13.68
2022-12-23T11:20:19.205Z,13.75
2022-12-23T11:21:21.541Z,13.68
2022-12-23T11:22:26.407Z,13.69
2022-12-23T11:23:33.743Z,13.82
2022-12-23T11:24:41.330Z,13.72
2022-12-23T11:25:46.451Z,13.66
2022-12-23T11:26:58.607Z,13.70
2022-12-23T11:28:06.227Z,13.84
2022-12-23T11:29:12.799Z,13.97
2022-12-23T11:30:19.435Z,14.09
2022-12-23T11:31:32.603Z,14.13
2022-12-23T11:32:34.675Z,14.18
2022-12-23T11:33:40.174Z,14.25
2022-12-23T11:34:45.929Z,14.26
2022-12-23T11:35:47.720Z,14.19
2022-12-23T11:37:06.988Z,13.89
2022-12-23T11:38:14.341Z,14.01
2022-12-23T11:39:48.691Z,14.00
2022-12-23T11:40:50.482Z,13.94
2022-12-23T11:42:02.142Z,13.80
2022-12-23T11:43:11.860Z,13.84
2022-12-23T11:44:27.382Z,13.85
2022-12-23T11:45:33.191Z,13.83
2022-12-23T11:46:35.678Z,13.78
2022-12-23T11:47:41.703Z,13.58
2022-12-23T11:48:43.757Z,13.40
2022-12-23T11:49:57.618Z,13.37
2022-12-23T11:51:01.760Z,13.27
2022-12-23T11:52:06.492Z,13.22
2022-12-23T11:53:21.353Z,13.20
2022-12-23T11:54:23.074Z,13.07
2022-12-23T11:55:29.888Z,12.99
2022-12-23T11:56:38.926Z,13.00
2022-12-23T11:57:48.530Z,13.09
2022-12-23T11:58:55.162Z,13.10
2022-12-23T12:00:00.988Z,13.09
2022-12-23T12:01:14.819Z,13.15
2022-12-23T12:02:39.923Z,13.10
2022-12-23T12:03:51.286Z,12.96
2022-12-23T12:05:00.569Z,13.10
2022-12-23T12:06:06.995Z,13.05
2022-12-23T12:07:14.557Z,13.05
2022-12-23T12:08:21.384Z,12.97
2022-12-23T12:09:24.315Z,12.99
2022-12-23T12:10:29.265Z,12.97
2022-12-23T12:11:44.115Z,12.95
2022-12-23T12:12:49.954Z,12.87
2022-12-23T12:14:01.596Z,12.82
2022-12-23T12:15:03.768Z,12.78
2022-12-23T12:16:36.552Z,12.74
2022-12-23T12:17:47.129Z,12.74
2022-12-23T12:18:55.505Z,12.79
2022-12-23T12:20:04.916Z,12.78
2022-12-23T12:21:14.434Z,12.77
2022-12-23T12:22:43.674Z,12.73
2022-12-23T12:24:08.319Z,12.70
2022-12-23T12:25:17.952Z,12.71
2022-12-23T12:26:33.127Z,12.68
2022-12-23T12:27:39.439Z,12.66
2022-12-23T12:28:44.760Z,12.63
2022-12-23T12:29:55.975Z,12.62
2022-12-23T12:31:03.367Z,12.64
2022-12-23T12:32:15.855Z,12.64
2022-12-23T12:33:33.730Z,12.57
2022-12-23T12:35:13.831Z,12.62
2022-12-23T12:36:36.091Z,12.62
2022-12-23T12:37:51.584Z,12.55
2022-12-23T12:38:55.925Z,12.55
2022-12-23T12:40:03.677Z,12.52
2022-12-23T12:41:14.508Z,12.39
2022-12-23T12:42:26.910Z,12.35
2022-12-23T12:43:34.550Z,12.40
2022-12-23T12:45:10.408Z,12.40
2022-12-23T12:46:34.337Z,12.16
2022-12-23T12:48:02.104Z,12.20
2022-12-23T12:49:29.606Z,12.07
2022-12-23T12:50:34.739Z,12.13
2022-12-23T12:51:42.617Z,12.17
2022-12-23T12:52:44.727Z,12.22
2022-12-23T12:54:05.498Z,12.24
2022-12-23T12:55:23.489Z,12.22
2022-12-23T12:56:32.988Z,12.07
2022-12-23T12:57:36.730Z,12.12
2022-12-23T12:58:40.497Z,12.11
2022-12-23T12:59:44.866Z,12.18
2022-12-23T13:01:12.016Z,12.15
2022-12-23T13:02:36.236Z,12.23
2022-12-23T13:04:05.746Z,12.26
2022-12-23T13:05:19.832Z,12.19
2022-12-23T13:06:34.606Z,12.07
2022-12-23T13:08:06.864Z,12.06
2022-12-23T13:09:27.194Z,12.01
2022-12-23T13:10:44.702Z,11.88
2022-12-23T13:12:01.159Z,11.88
2022-12-23T13:13:08.477Z,11.92
2022-12-23T13:14:27.447Z,11.86
2022-12-23T13:15:44.271Z,11.78
2022-12-23T13:17:21.497Z,11.74
2022-12-23T13:18:31.829Z,11.69
2022-12-23T13:19:51.024Z,11.66
2022-12-23T13:21:06.260Z,11.62
2022-12-23T13:22:07.908Z,11.65
2022-12-23T13:23:44.110Z,11.68
2022-12-23T13:24:54.376Z,11.59
2022-12-23T13:26:05.326Z,11.64
2022-12-23T13:27:14.999Z,11.73
2022-12-23T13:28:44.566Z,11.75
2022-12-23T13:30:01.513Z,11.78
2022-12-23T13:31:31.169Z,11.77
2022-12-23T13:33:14.932Z,11.63
2022-12-23T13:34:38.841Z,11.51
2022-12-23T13:35:56.293Z,11.53
2022-12-23T13:37:20.050Z,11.49
2022-12-23T13:38:55.492Z,11.42
2022-12-23T13:40:41.674Z,11.28
2022-12-23T13:41:49.319Z,11.32
2022-12-23T13:42:57.415Z,11.27
2022-12-23T13:44:01.558Z,11.31
2022-12-23T13:45:04.626Z,11.33
2022-12-23T13:46:22.279Z,11.23
2022-12-23T13:47:29.832Z,11.31
2022-12-23T13:49:00.119Z,11.33
2022-12-23T13:50:11.801Z,11.33
2022-12-23T13:51:47.893Z,11.32
2022-12-23T13:53:17.911Z,11.25
2022-12-23T13:54:44.118Z,11.28
2022-12-23T13:56:06.959Z,11.26
2022-12-23T13:57:46.825Z,11.28
2022-12-23T13:58:50.837Z,11.20
2022-12-23T14:00:06.017Z,11.23
2022-12-23T14:01:08.238Z,11.24
2022-12-23T14:02:37.731Z,11.24
2022-12-23T14:03:39.887Z,11.14
2022-12-23T14:04:59.314Z,11.16
2022-12-23T14:06:25.414Z,11.15
2022-12-23T14:07:30.521Z,11.16
2022-12-23T14:08:42.246Z,11.14
2022-12-23T14:09:47.817Z,11.12
2022-12-23T14:11:12.155Z,11.06
2022-12-23T14:12:27.288Z,10.96
2022-12-23T14:13:40.195Z,10.94
2022-12-23T14:15:10.434Z,10.75
2022-12-23T14:16:33.817Z,10.69
2022-12-23T14:17:50.000Z,10.70
2022-12-23T14:19:13.326Z,10.72
2022-12-23T14:20:33.592Z,10.72
2022-12-23T14:22:01.062Z,10.73
2022-12-23T14:23:21.648Z,10.73
2022-12-23T14:25:00.878Z,10.68
2022-12-23T14:26:26.836Z,10.61
2022-12-23T14:27:46.890Z,10.61
2022-12-23T14:28:54.338Z,10.57
2022-12-23T14:30:09.970Z,10.46
2022-12-23T14:31:36.751Z,10.34
2022-12-23T14:32:54.083Z,10.13
2022-12-23T14:34:23.010Z,9.81
2022-12-23T14:35:46.760Z,9.78
2022-12-23T14:37:16.024Z,9.82
2022-12-23T14:38:32.852Z,9.84
2022-12-23T14:39:34.723Z,9.76
2022-12-23T14:40:39.478Z,9.65
2022-12-23T14:41:53.290Z,9.69
2022-12-23T14:43:31.199Z,9.68
2022-12-23T14:44:35.905Z,9.57
2022-12-23T14:45:43.443Z,9.50
2022-12-23T14:46:45.185Z,9.40
2022-12-23T14:47:47.072Z,9.27
2022-12-23T14:48:48.729Z,9.14
2022-12-23T14:49:50.482Z,8.97
2022-12-23T14:51:15.277Z,8.96
2022-12-23T14:52:40.752Z,8.79
2022-12-23T14:53:52.532Z,8.77
2022-12-23T14:55:20.964Z,8.61
2022-12-23T14:56:16.962Z,8.60
2022-12-23T14:57:27.748Z,8.50
2022-12-23T14:58:36.701Z,8.56